Time;durP1;ratioP1;P1;durP2;ratioP2;P2;SDS_P1;SDS_P2;PMS_P1;PMS_P2;Temp;Humidity;BMP_temperature;BMP_pressure;BME280_temperature;BME280_humidity;BME280_pressure;Samples;Min_cycle;Max_cycle;Signal;HPM_P1;HPM_P2
2021/10/02 00:41:10;;;;;;;8.00;5.50;;;13.30;99.90;;;;;;5002089;28;20038;-67
2021/10/02 00:44:40;;;;;;;6.50;4.80;;;13.30;99.90;;;;;;4967354;28;20032;-67
2021/10/02 00:47:10;;;;;;;6.53;4.82;;;13.30;99.90;;;;;;5045411;28;20033;-67
2021/10/02 00:49:38;;;;;;;7.75;4.80;;;13.30;99.90;;;;;;5045482;28;20029;-67
2021/10/02 00:52:07;;;;;;;6.20;4.70;;;13.30;99.90;;;;;;5043666;28;20049;-67
2021/10/02 00:54:33;;;;;;;9.10;5.20;;;13.30;99.90;;;;;;5046563;28;20029;-67
2021/10/02 00:57:00;;;;;;;8.75;4.95;;;13.30;99.90;;;;;;5033088;28;20029;-67
2021/10/02 00:59:29;;;;;;;6.85;4.85;;;13.40;99.90;;;;;;5032349;28;20026;-67
2021/10/02 01:01:59;;;;;;;8.48;4.88;;;13.40;99.90;;;;;;5046528;28;20041;-67
2021/10/02 01:04:49;;;;;;;6.80;4.82;;;13.30;99.90;;;;;;5052138;28;20025;-67
2021/10/02 01:07:27;;;;;;;7.18;4.57;;;13.30;99.90;;;;;;5052112;28;20084;-67
2021/10/02 01:10:43;;;;;;;8.93;5.20;;;13.40;99.90;;;;;;5045452;28;20501;-67
2021/10/02 01:13:16;;;;;;;6.35;4.75;;;13.40;99.90;;;;;;5043310;28;20090;-67
2021/10/02 01:15:53;;;;;;;6.18;4.75;;;13.40;99.90;;;;;;5037222;28;20028;-68
2021/10/02 01:18:48;;;;;;;6.93;4.95;;;13.30;99.90;;;;;;5032106;28;20466;-67
2021/10/02 01:21:39;;;;;;;8.77;5.82;;;13.30;99.90;;;;;;5035463;28;20041;-67
2021/10/02 01:24:44;;;;;;;8.50;6.18;;;13.20;99.90;;;;;;5052563;28;20462;-67
2021/10/02 01:27:21;;;;;;;6.90;5.05;;;13.20;99.90;;;;;;5052871;28;20029;-67
2021/10/02 01:29:49;;;;;;;5.65;4.82;;;13.10;99.90;;;;;;5052643;28;20029;-67
2021/10/02 01:32:41;;;;;;;8.93;5.82;;;13.10;99.90;;;;;;5051700;28;20033;-67
2021/10/02 01:35:22;;;;;;;8.10;5.15;;;13.00;99.90;;;;;;5051875;28;20112;-67
2021/10/02 01:48:50;;;;;;;9.20;6.72;;;13.00;99.90;;;;;;5051797;28;20116;-67
2021/10/02 01:51:17;;;;;;;10.57;6.78;;;12.90;99.90;;;;;;5039762;28;20055;-67
2021/10/02 01:53:46;;;;;;;9.60;6.88;;;12.90;99.90;;;;;;5052447;28;20062;-69
2021/10/02 01:56:16;;;;;;;9.85;6.43;;;12.90;99.90;;;;;;5051684;28;20033;-67
2021/10/02 01:58:44;;;;;;;9.18;6.20;;;12.80;99.90;;;;;;5034349;28;20413;-67
2021/10/02 02:01:10;;;;;;;7.22;5.82;;;12.80;99.90;;;;;;5050730;28;20021;-68
2021/10/02 02:03:41;;;;;;;10.15;6.97;;;12.80;99.90;;;;;;5050708;28;20216;-67
2021/10/02 02:06:09;;;;;;;8.05;6.30;;;12.70;99.90;;;;;;5050063;28;20037;-68
2021/10/02 02:08:36;;;;;;;8.50;6.35;;;12.70;99.90;;;;;;5050451;28;20120;-68
2021/10/02 02:11:03;;;;;;;11.82;6.65;;;12.70;99.90;;;;;;5035479;28;20029;-68
2021/10/02 02:13:30;;;;;;;11.40;7.63;;;12.70;99.90;;;;;;5040517;28;20426;-67
2021/10/02 02:15:59;;;;;;;9.85;6.80;;;12.70;99.90;;;;;;5051550;28;20025;-68
2021/10/02 02:18:26;;;;;;;9.68;6.45;;;12.70;99.90;;;;;;5038377;28;20037;-67
2021/10/02 02:21:01;;;;;;;9.68;6.95;;;12.60;99.90;;;;;;5031797;28;20029;-67
2021/10/02 02:23:28;;;;;;;8.82;6.40;;;12.60;99.90;;;;;;5030999;28;20446;-67
2021/10/02 02:25:55;;;;;;;12.38;7.03;;;12.60;99.90;;;;;;5047916;28;20393;-67
2021/10/02 02:28:22;;;;;;;8.85;6.55;;;12.60;99.90;;;;;;5051002;28;20029;-67
2021/10/02 02:30:48;;;;;;;10.93;7.75;;;12.60;99.90;;;;;;5051242;28;20081;-70
2021/10/02 02:33:19;;;;;;;10.95;8.00;;;12.60;99.90;;;;;;5044282;28;20033;-67
2021/10/02 02:35:46;;;;;;;9.27;7.30;;;12.60;99.90;;;;;;5040270;28;20120;-67
2021/10/02 02:38:13;;;;;;;7.82;6.55;;;12.60;99.90;;;;;;5051664;28;20029;-67
2021/10/02 02:40:38;;;;;;;8.82;6.20;;;12.50;99.90;;;;;;5036354;28;20670;-67
2021/10/02 02:43:05;;;;;;;12.98;7.57;;;12.50;99.90;;;;;;5031821;28;20129;-67
2021/10/02 02:45:32;;;;;;;11.75;7.88;;;12.50;99.90;;;;;;5044789;28;20028;-67
2021/10/02 02:48:21;;;;;;;10.10;7.50;;;12.50;99.90;;;;;;5051236;28;20029;-67
2021/10/02 02:50:51;;;;;;;10.63;6.60;;;12.40;99.90;;;;;;5025330;28;20046;-68
2021/10/02 02:53:22;;;;;;;10.18;7.72;;;12.40;99.90;;;;;;5031254;28;20038;-67
2021/10/02 02:56:16;;;;;;;11.75;7.38;;;12.40;99.90;;;;;;5046711;28;20500;-67
2021/10/02 02:58:44;;;;;;;11.88;7.00;;;12.40;99.90;;;;;;5048202;28;20048;-67
2021/10/02 03:01:13;;;;;;;11.82;6.88;;;12.40;99.90;;;;;;5032725;28;20036;-67
2021/10/02 03:03:41;;;;;;;10.60;7.10;;;12.40;99.90;;;;;;5048141;28;20032;-67
2021/10/02 03:06:10;;;;;;;10.98;6.35;;;12.30;99.90;;;;;;5040724;28;20074;-67
2021/10/02 03:08:42;;;;;;;7.43;5.60;;;12.30;99.90;;;;;;5050316;28;20037;-67
2021/10/02 03:11:10;;;;;;;8.55;6.78;;;12.30;99.90;;;;;;5031771;28;20033;-67
2021/10/02 03:13:37;;;;;;;12.38;7.22;;;12.30;99.90;;;;;;5030486;28;20037;-67
2021/10/02 03:16:10;;;;;;;8.93;6.30;;;12.30;99.90;;;;;;5013368;28;20029;-67
2021/10/02 03:18:40;;;;;;;10.00;7.35;;;12.30;99.90;;;;;;5032853;28;20041;-67
2021/10/02 03:21:07;;;;;;;10.68;6.93;;;12.30;99.90;;;;;;5044967;28;20478;-68
2021/10/02 03:23:33;;;;;;;10.48;6.88;;;12.30;99.90;;;;;;5034441;28;20037;-67
2021/10/02 03:26:01;;;;;;;13.15;7.28;;;12.30;99.90;;;;;;5052783;28;20511;-67
2021/10/02 03:28:29;;;;;;;13.02;8.23;;;12.30;99.90;;;;;;5053420;28;20038;-68
2021/10/02 03:30:57;;;;;;;10.43;7.10;;;12.30;99.90;;;;;;5047160;28;20462;-68
2021/10/02 03:33:25;;;;;;;8.35;6.53;;;12.20;99.90;;;;;;5047033;28;20099;-66
2021/10/02 03:35:51;;;;;;;11.02;6.78;;;12.20;99.90;;;;;;5054191;28;20036;-66
2021/10/02 03:38:16;;;;;;;14.48;6.78;;;12.20;99.90;;;;;;5054207;28;20041;-66
2021/10/02 03:40:42;;;;;;;8.85;6.75;;;12.20;99.90;;;;;;5053786;28;20029;-66
2021/10/02 03:43:08;;;;;;;8.23;6.53;;;12.20;99.90;;;;;;5054669;28;20083;-66
2021/10/02 03:45:36;;;;;;;10.90;7.07;;;12.20;99.90;;;;;;5053555;28;20029;-66
2021/10/02 03:48:03;;;;;;;12.45;7.68;;;12.10;99.90;;;;;;5051040;28;20091;-66
2021/10/02 03:50:29;;;;;;;8.75;6.63;;;12.20;99.90;;;;;;5052300;28;20025;-66
2021/10/02 03:52:55;;;;;;;11.25;7.75;;;12.10;99.90;;;;;;5053928;28;20440;-66
2021/10/02 03:55:20;;;;;;;12.82;7.90;;;12.10;99.90;;;;;;5044852;28;20075;-66
2021/10/02 03:57:46;;;;;;;8.43;6.40;;;12.10;99.90;;;;;;5050075;28;20033;-66
2021/10/02 04:00:13;;;;;;;11.27;7.43;;;12.10;99.90;;;;;;5053830;28;20381;-66
2021/10/02 04:02:39;;;;;;;8.80;6.22;;;12.00;99.90;;;;;;5026320;28;20644;-66
2021/10/02 04:05:05;;;;;;;8.93;6.70;;;12.00;99.90;;;;;;5054127;28;20085;-66
2021/10/02 04:07:31;;;;;;;8.48;6.60;;;12.00;99.90;;;;;;5052350;28;20504;-66
2021/10/02 04:09:57;;;;;;;9.65;6.75;;;12.00;99.90;;;;;;5053578;28;20037;-66
2021/10/02 04:12:23;;;;;;;8.60;6.72;;;12.00;99.90;;;;;;5053069;28;20500;-65
2021/10/02 04:14:50;;;;;;;10.40;7.55;;;12.00;99.90;;;;;;5053604;28;20111;-66
2021/10/02 04:17:16;;;;;;;12.02;7.10;;;12.00;99.90;;;;;;5053809;28;20454;-66
2021/10/02 04:19:42;;;;;;;9.45;6.75;;;12.00;99.90;;;;;;5063512;28;20032;-66
2021/10/02 04:22:09;;;;;;;9.02;6.78;;;12.10;99.90;;;;;;5066704;28;20040;-66
2021/10/02 04:24:34;;;;;;;11.00;7.25;;;12.10;99.90;;;;;;5033536;28;20025;-67
2021/10/02 04:27:00;;;;;;;11.27;8.73;;;12.10;99.90;;;;;;5046021;28;20466;-66
2021/10/02 04:29:27;;;;;;;10.63;7.38;;;12.20;99.90;;;;;;5053017;28;20025;-66
2021/10/02 04:31:53;;;;;;;11.95;7.00;;;12.20;99.90;;;;;;5053146;28;20045;-66
2021/10/02 04:34:19;;;;;;;10.15;7.95;;;12.10;99.90;;;;;;5052714;28;20458;-66
2021/10/02 04:36:45;;;;;;;10.38;6.93;;;12.10;99.90;;;;;;5052491;28;20041;-66
2021/10/02 04:39:10;;;;;;;8.35;6.82;;;12.00;99.90;;;;;;5034693;28;20434;-66
2021/10/02 04:41:36;;;;;;;8.68;6.38;;;11.90;99.90;;;;;;5040725;28;20032;-66
2021/10/02 04:44:02;;;;;;;9.57;7.30;;;11.90;99.90;;;;;;5042883;28;20030;-67
2021/10/02 04:46:27;;;;;;;9.82;7.03;;;11.90;99.90;;;;;;5041091;28;20029;-66
2021/10/02 04:48:53;;;;;;;10.55;7.25;;;11.80;99.90;;;;;;5042942;28;20021;-66
2021/10/02 04:51:19;;;;;;;9.38;7.00;;;11.80;99.90;;;;;;5042752;28;20025;-66
2021/10/02 04:53:44;;;;;;;10.90;8.10;;;11.80;99.90;;;;;;5040709;28;20445;-66
2021/10/02 04:56:14;;;;;;;14.32;7.93;;;11.80;99.90;;;;;;5042820;28;20029;-66
2021/10/02 04:58:41;;;;;;;13.10;7.80;;;11.80;99.90;;;;;;5040632;28;20045;-66
2021/10/02 05:01:07;;;;;;;10.30;7.80;;;11.80;99.90;;;;;;5042254;28;20021;-66
2021/10/02 05:03:34;;;;;;;10.52;7.97;;;11.80;99.90;;;;;;5039926;28;20120;-66
2021/10/02 05:06:02;;;;;;;12.10;8.10;;;11.80;99.90;;;;;;5039784;28;20077;-66
2021/10/02 05:08:28;;;;;;;13.98;8.93;;;11.80;99.90;;;;;;5040578;28;20029;-66
2021/10/02 05:10:53;;;;;;;11.65;7.80;;;11.90;99.90;;;;;;5016040;28;20466;-66
2021/10/02 05:13:19;;;;;;;12.10;8.15;;;12.00;99.90;;;;;;5041109;28;20025;-66
2021/10/02 05:15:45;;;;;;;9.75;7.30;;;12.00;99.90;;;;;;5041407;28;20492;-67
2021/10/02 05:18:10;;;;;;;10.95;8.02;;;12.00;99.90;;;;;;5041370;28;20496;-67
2021/10/02 05:20:36;;;;;;;13.77;8.50;;;12.00;99.90;;;;;;5041507;28;20025;-67
2021/10/02 05:23:02;;;;;;;11.57;7.82;;;11.90;99.90;;;;;;5041845;28;20465;-67
2021/10/02 05:25:28;;;;;;;11.30;7.65;;;11.90;99.90;;;;;;5039086;28;20082;-67
2021/10/02 05:27:55;;;;;;;11.32;7.75;;;11.90;99.90;;;;;;5042003;28;20101;-67
2021/10/02 05:30:21;;;;;;;12.20;7.82;;;11.80;99.90;;;;;;5040746;28;20020;-67
2021/10/02 05:32:47;;;;;;;12.38;8.23;;;11.80;99.90;;;;;;5041065;28;20466;-67
2021/10/02 05:35:12;;;;;;;12.02;8.48;;;11.80;99.90;;;;;;5041365;28;20523;-67
2021/10/02 05:37:38;;;;;;;16.83;8.25;;;11.80;99.90;;;;;;5038611;28;20033;-67
2021/10/02 05:40:04;;;;;;;12.32;7.63;;;11.80;99.90;;;;;;5040749;28;20126;-67
2021/10/02 05:42:30;;;;;;;12.13;8.10;;;11.70;99.90;;;;;;5039644;28;20028;-67
2021/10/02 05:44:56;;;;;;;14.38;8.02;;;11.70;99.90;;;;;;5038848;28;20096;-67
2021/10/02 05:47:21;;;;;;;11.95;8.68;;;11.70;99.90;;;;;;5040911;28;20021;-67
2021/10/02 05:49:47;;;;;;;14.75;9.23;;;11.80;99.90;;;;;;5023220;28;20030;-67
2021/10/02 05:52:12;;;;;;;10.85;8.40;;;11.80;99.90;;;;;;5041696;28;20036;-67
2021/10/02 05:54:39;;;;;;;11.30;7.90;;;11.90;99.90;;;;;;5036749;28;20037;-67
2021/10/02 05:57:05;;;;;;;8.45;6.97;;;12.00;99.90;;;;;;5041646;28;20086;-67
2021/10/02 05:59:31;;;;;;;12.07;7.97;;;12.10;99.90;;;;;;5041661;28;20470;-66
2021/10/02 06:01:56;;;;;;;11.00;8.30;;;12.20;99.90;;;;;;5041532;28;20031;-67
2021/10/02 06:04:22;;;;;;;13.00;8.02;;;12.30;99.90;;;;;;5039028;28;20026;-67
2021/10/02 06:06:48;;;;;;;9.85;7.60;;;12.40;99.90;;;;;;5041155;28;20049;-67
2021/10/02 06:09:13;;;;;;;12.85;7.15;;;12.50;99.90;;;;;;5041148;28;20512;-67
2021/10/02 06:11:39;;;;;;;13.45;7.63;;;12.60;99.90;;;;;;5040243;28;20033;-67
2021/10/02 06:14:05;;;;;;;10.65;7.65;;;12.70;99.90;;;;;;5040195;28;20063;-67
2021/10/02 06:16:31;;;;;;;10.68;7.25;;;12.80;99.90;;;;;;5040459;28;20032;-67
2021/10/02 06:18:57;;;;;;;9.98;6.43;;;12.80;99.90;;;;;;5042950;28;20021;-67
2021/10/02 06:21:22;;;;;;;7.40;6.25;;;12.90;99.90;;;;;;5039851;28;20029;-67
2021/10/02 06:23:48;;;;;;;13.07;7.28;;;12.90;99.90;;;;;;5041196;28;20355;-67
2021/10/02 06:26:14;;;;;;;8.43;6.65;;;13.00;99.90;;;;;;5038517;28;20025;-67
2021/10/02 06:28:40;;;;;;;12.65;7.50;;;13.00;99.90;;;;;;5038043;28;20207;-67
2021/10/02 06:31:05;;;;;;;9.93;8.18;;;13.00;99.90;;;;;;5040313;28;20371;-67
2021/10/02 06:33:31;;;;;;;15.82;8.70;;;13.00;99.90;;;;;;5038217;28;20033;-67
2021/10/02 06:35:57;;;;;;;11.68;7.65;;;13.10;99.90;;;;;;5039191;28;20474;-68
2021/10/02 06:38:23;;;;;;;11.02;8.00;;;13.10;99.90;;;;;;5039671;28;20486;-67
2021/10/02 06:40:49;;;;;;;18.80;9.45;;;13.10;99.90;;;;;;5040403;28;20029;-67
2021/10/02 06:43:15;;;;;;;11.18;8.45;;;13.20;99.90;;;;;;5039045;28;20030;-67
2021/10/02 06:45:41;;;;;;;11.05;8.32;;;13.20;99.90;;;;;;5038784;28;20103;-67
2021/10/02 06:48:06;;;;;;;11.38;8.25;;;13.30;99.90;;;;;;5039785;28;20024;-67
2021/10/02 06:50:33;;;;;;;13.35;9.05;;;13.20;99.90;;;;;;5037711;28;20034;-66
2021/10/02 06:52:58;;;;;;;14.80;9.52;;;13.20;99.90;;;;;;5038930;28;20073;-67
2021/10/02 06:55:24;;;;;;;11.50;8.70;;;13.20;99.90;;;;;;5041012;28;20075;-67
2021/10/02 06:57:50;;;;;;;10.45;8.40;;;13.30;99.90;;;;;;5047434;28;20039;-67
2021/10/02 07:00:16;;;;;;;12.80;8.68;;;13.30;99.90;;;;;;5047733;28;20426;-67
2021/10/02 07:02:43;;;;;;;11.55;8.73;;;13.30;99.90;;;;;;5045268;28;20021;-67
2021/10/02 07:05:10;;;;;;;12.35;8.50;;;13.40;99.90;;;;;;5045416;28;20022;-67
2021/10/02 07:07:36;;;;;;;10.23;7.75;;;13.40;99.90;;;;;;5044539;28;20053;-67
2021/10/02 07:10:02;;;;;;;13.05;8.18;;;13.40;99.90;;;;;;5047744;28;20033;-67
2021/10/02 07:12:28;;;;;;;15.60;8.55;;;13.40;99.90;;;;;;5045981;28;20116;-69
2021/10/02 07:14:53;;;;;;;13.25;7.45;;;13.50;99.90;;;;;;5047216;28;20544;-76
2021/10/02 07:17:19;;;;;;;12.20;8.15;;;13.60;99.90;;;;;;5027839;28;20024;-67
2021/10/02 07:19:44;;;;;;;10.60;8.35;;;13.70;99.90;;;;;;5047344;28;20033;-68
2021/10/02 07:22:10;;;;;;;13.18;7.97;;;13.70;99.90;;;;;;5047217;28;20532;-68
2021/10/02 07:24:36;;;;;;;11.30;8.50;;;13.90;99.90;;;;;;5043564;28;20033;-66
2021/10/02 07:27:02;;;;;;;10.88;8.18;;;14.00;99.90;;;;;;5046924;28;20029;-65
2021/10/02 07:29:27;;;;;;;14.27;9.05;;;14.00;99.90;;;;;;5044720;28;20040;-67
2021/10/02 07:31:53;;;;;;;10.25;7.38;;;14.10;99.90;;;;;;5056447;28;20041;-68
2021/10/02 07:34:18;;;;;;;12.90;8.05;;;14.20;99.90;;;;;;5057289;28;20385;-68
2021/10/02 07:36:44;;;;;;;13.43;8.55;;;14.20;99.90;;;;;;5056717;28;20033;-69
2021/10/02 07:39:10;;;;;;;11.05;8.13;;;14.20;99.90;;;;;;5055650;28;20543;-68
2021/10/02 07:41:41;;;;;;;17.85;8.73;;;14.10;99.90;;;;;;5056556;28;20032;-67
2021/10/02 07:44:11;;;;;;;18.05;9.00;;;14.10;99.90;;;;;;5057265;28;20363;-68
2021/10/02 07:46:47;;;;;;;11.67;8.17;;;14.10;99.90;;;;;;5059773;28;20394;-67
2021/10/02 07:49:13;;;;;;;12.40;8.27;;;14.10;99.90;;;;;;5054148;28;20481;-67
2021/10/02 07:51:39;;;;;;;10.82;7.53;;;14.10;99.90;;;;;;5051530;28;20033;-67
2021/10/02 07:54:05;;;;;;;11.50;7.57;;;14.30;99.90;;;;;;5047761;28;20032;-66
2021/10/02 07:56:34;;;;;;;10.52;7.07;;;14.40;99.90;;;;;;5056051;28;20104;-67
2021/10/02 07:59:05;;;;;;;10.60;7.50;;;14.60;99.90;;;;;;5053972;28;20029;-68
2021/10/02 08:01:31;;;;;;;10.65;7.18;;;14.70;99.90;;;;;;5036293;28;20037;-67
2021/10/02 08:03:57;;;;;;;11.52;7.30;;;14.90;99.90;;;;;;5037369;28;20034;-67
2021/10/02 08:06:24;;;;;;;11.05;7.15;;;14.90;99.90;;;;;;5036180;28;20128;-67
2021/10/02 08:08:51;;;;;;;11.27;7.78;;;15.00;99.90;;;;;;5045107;28;20041;-67
2021/10/02 08:11:17;;;;;;;10.07;6.60;;;15.10;99.90;;;;;;5051921;28;20440;-68
2021/10/02 08:13:43;;;;;;;12.50;6.60;;;15.10;99.90;;;;;;5041803;28;20037;-68
2021/10/02 08:16:11;;;;;;;9.90;5.50;;;15.20;99.90;;;;;;5031404;28;20026;-68
2021/10/02 08:18:39;;;;;;;9.43;6.10;;;15.30;99.90;;;;;;5045896;28;20053;-68
2021/10/02 08:21:06;;;;;;;7.80;5.97;;;15.50;99.90;;;;;;5043864;28;20037;-68
2021/10/02 08:23:35;;;;;;;10.30;6.00;;;15.60;99.90;;;;;;5033046;28;20419;-67
2021/10/02 08:26:02;;;;;;;10.25;5.32;;;15.80;99.90;;;;;;5030167;28;20116;-68
2021/10/02 08:28:32;;;;;;;8.73;6.10;;;15.90;99.90;;;;;;5035311;28;20025;-67
2021/10/02 08:30:59;;;;;;;8.00;5.97;;;16.00;99.90;;;;;;5052504;28;20533;-67
2021/10/02 08:33:25;;;;;;;11.32;6.20;;;16.10;99.90;;;;;;5051870;28;20108;-67
2021/10/02 08:35:51;;;;;;;8.30;6.55;;;16.30;99.90;;;;;;5040808;28;20438;-74
2021/10/02 08:38:16;;;;;;;8.07;5.63;;;16.30;99.90;;;;;;5053401;28;20029;-73
2021/10/02 08:40:43;;;;;;;9.52;5.82;;;16.50;99.90;;;;;;5038012;28;20033;-68
2021/10/02 08:43:15;;;;;;;11.30;5.40;;;16.70;99.90;;;;;;5033479;28;20034;-69
2021/10/02 08:45:41;;;;;;;7.28;5.10;;;16.90;99.90;;;;;;5047835;28;20094;-72
2021/10/02 08:48:13;;;;;;;12.07;6.05;;;17.10;99.90;;;;;;5055955;28;20105;-75
2021/10/02 08:50:40;;;;;;;8.98;5.22;;;17.10;99.90;;;;;;5052732;28;20017;-71
2021/10/02 08:53:09;;;;;;;10.32;5.55;;;17.30;99.90;;;;;;5053511;28;20033;-72
2021/10/02 08:55:35;;;;;;;5.97;4.70;;;17.50;99.90;;;;;;5040921;28;20036;-71
2021/10/02 08:58:02;;;;;;;8.07;4.70;;;17.60;99.90;;;;;;5033428;28;20029;-73
2021/10/02 09:00:30;;;;;;;10.18;5.57;;;17.60;99.90;;;;;;5034461;28;20048;-73
2021/10/02 09:02:57;;;;;;;6.00;4.55;;;17.70;99.90;;;;;;5033418;28;20037;-72
2021/10/02 09:05:24;;;;;;;6.95;4.80;;;17.90;99.90;;;;;;5049626;28;20163;-74
2021/10/02 09:07:54;;;;;;;8.25;4.60;;;17.90;99.90;;;;;;5053216;28;20064;-73
2021/10/02 09:10:23;;;;;;;4.75;4.13;;;18.00;99.90;;;;;;5041961;28;20037;-75
2021/10/02 09:12:49;;;;;;;4.05;2.45;;;18.10;99.20;;;;;;5032882;28;20069;-72
2021/10/02 09:15:16;;;;;;;5.20;4.18;;;18.20;94.30;;;;;;5032844;28;20394;-73
2021/10/02 09:17:42;;;;;;;4.05;2.88;;;18.40;96.80;;;;;;5032332;28;20101;-73
2021/10/02 09:20:09;;;;;;;3.53;1.92;;;18.50;93.40;;;;;;5043686;28;20036;-70
2021/10/02 09:22:36;;;;;;;2.80;1.83;;;18.60;87.90;;;;;;5036835;28;20478;-71
2021/10/02 09:25:05;;;;;;;3.25;2.08;;;18.70;84.50;;;;;;5038780;28;20390;-70
2021/10/02 09:27:32;;;;;;;3.10;1.77;;;18.90;82.30;;;;;;5031956;28;20120;-71
2021/10/02 09:29:59;;;;;;;3.28;1.90;;;19.00;79.20;;;;;;5033217;28;20044;-68
2021/10/02 09:32:34;;;;;;;2.17;1.92;;;19.10;78.20;;;;;;5045925;28;20045;-69
2021/10/02 09:35:03;;;;;;;2.95;2.10;;;19.30;75.60;;;;;;5051404;28;20376;-68
2021/10/02 09:37:36;;;;;;;2.28;2.00;;;19.40;76.50;;;;;;5051485;28;20025;-68
2021/10/02 09:40:18;;;;;;;4.40;2.15;;;19.50;76.20;;;;;;5043096;28;20046;-69
2021/10/02 09:42:50;;;;;;;3.00;2.30;;;19.60;74.90;;;;;;5031926;28;20113;-68
2021/10/02 09:45:21;;;;;;;4.30;3.00;;;19.70;75.30;;;;;;5032522;28;20052;-68
2021/10/02 09:47:52;;;;;;;3.92;2.38;;;19.90;73.90;;;;;;5031710;28;20022;-69
2021/10/02 09:50:21;;;;;;;4.32;2.20;;;20.00;72.00;;;;;;5027291;28;20036;-68
2021/10/02 09:52:56;;;;;;;5.45;2.70;;;20.10;71.10;;;;;;5051226;28;20045;-68
2021/10/02 09:55:33;;;;;;;4.25;2.28;;;20.20;71.50;;;;;;5052260;28;20108;-68
2021/10/02 09:58:05;;;;;;;4.22;2.30;;;20.30;71.40;;;;;;5052150;28;20532;-69
2021/10/02 10:00:39;;;;;;;5.28;2.58;;;20.50;70.90;;;;;;5041408;28;20028;-67
2021/10/02 10:03:07;;;;;;;2.58;2.13;;;20.60;71.00;;;;;;5052089;28;20437;-67
2021/10/02 10:05:38;;;;;;;6.85;3.05;;;20.70;70.80;;;;;;5037988;28;20379;-68
2021/10/02 10:08:07;;;;;;;4.70;3.03;;;20.70;70.60;;;;;;5032305;28;20367;-68
2021/10/02 10:10:35;;;;;;;4.05;2.60;;;20.80;70.60;;;;;;5034083;28;20018;-68
2021/10/02 10:13:12;;;;;;;3.47;2.83;;;21.00;70.90;;;;;;5031618;28;20499;-67
2021/10/02 10:15:46;;;;;;;3.97;2.47;;;21.10;70.60;;;;;;5046513;28;20486;-67
2021/10/02 10:18:27;;;;;;;3.22;2.53;;;21.20;70.20;;;;;;5051388;28;20079;-68
2021/10/02 10:20:57;;;;;;;5.10;2.80;;;21.30;70.30;;;;;;5071105;28;20531;-67
2021/10/02 10:23:49;;;;;;;6.20;2.78;;;21.50;69.50;;;;;;5071902;28;20029;-67
2021/10/02 10:26:17;;;;;;;3.97;2.80;;;21.50;68.50;;;;;;5035729;28;20065;-69
2021/10/02 10:28:45;;;;;;;6.53;2.80;;;21.50;69.00;;;;;;5050374;28;20060;-67
2021/10/02 10:31:13;;;;;;;6.50;2.53;;;21.60;68.30;;;;;;5050196;28;20029;-67
2021/10/02 10:33:41;;;;;;;4.82;2.60;;;21.60;68.20;;;;;;5050880;28;20087;-67
2021/10/02 10:36:08;;;;;;;3.95;2.97;;;21.70;68.20;;;;;;5032100;28;20064;-68
2021/10/02 10:38:35;;;;;;;3.55;2.78;;;21.70;68.10;;;;;;5030973;28;20025;-67
2021/10/02 10:41:03;;;;;;;4.28;2.70;;;21.80;69.00;;;;;;5033191;28;20049;-68
2021/10/02 10:43:31;;;;;;;4.75;2.88;;;21.90;68.50;;;;;;5030556;28;20025;-67
2021/10/02 10:46:02;;;;;;;7.65;3.42;;;22.10;68.20;;;;;;5046126;28;20112;-67
2021/10/02 10:48:28;;;;;;;3.60;2.85;;;22.20;67.30;;;;;;5033054;28;20044;-66
2021/10/02 10:50:58;;;;;;;4.53;2.92;;;22.10;66.90;;;;;;5050411;28;20029;-66
2021/10/02 10:53:42;;;;;;;4.82;2.97;;;22.20;66.70;;;;;;5051111;28;20217;-68
2021/10/02 10:56:10;;;;;;;4.35;2.90;;;22.30;66.50;;;;;;5036727;28;20025;-72
2021/10/02 10:58:36;;;;;;;5.45;2.75;;;22.30;66.20;;;;;;5050398;28;20354;-68
2021/10/02 11:01:04;;;;;;;4.57;3.25;;;22.30;66.20;;;;;;5050191;28;20465;-68
2021/10/02 11:03:44;;;;;;;3.70;3.35;;;22.30;66.60;;;;;;5050329;28;20040;-68
2021/10/02 11:06:15;;;;;;;;;;;22.30;66.00;;;;;;5051531;28;20037;-68
2021/10/02 11:09:00;;;;;;;3.88;2.83;;;22.30;66.40;;;;;;5050768;28;19909;-68
2021/10/02 11:11:44;;;;;;;5.00;2.70;;;22.20;66.40;;;;;;5032733;28;20059;-67
2021/10/02 11:14:38;;;;;;;3.17;2.88;;;22.30;66.10;;;;;;5031123;28;20109;-68
2021/10/02 11:17:04;;;;;;;3.08;2.60;;;22.40;65.70;;;;;;5050920;28;20490;-68
2021/10/02 11:19:38;;;;;;;9.05;3.50;;;22.50;65.80;;;;;;5049056;28;20026;-68
2021/10/02 11:22:34;;;;;;;4.22;2.90;;;22.50;66.00;;;;;;5051048;28;20079;-67
2021/10/02 11:25:00;;;;;;;5.60;3.13;;;22.60;65.70;;;;;;5040347;28;20025;-67
2021/10/02 11:27:26;;;;;;;7.25;2.83;;;22.80;65.80;;;;;;5044910;28;20047;-67
2021/10/02 11:29:53;;;;;;;7.97;3.28;;;23.00;65.50;;;;;;5041337;28;20022;-69
2021/10/02 11:32:29;;;;;;;3.83;2.88;;;23.10;64.90;;;;;;5031032;28;20041;-77
2021/10/02 11:35:25;;;;;;;6.70;2.90;;;23.30;64.40;;;;;;5055951;28;20033;-70
2021/10/02 11:38:03;;;;;;;3.38;2.63;;;23.50;64.40;;;;;;5030368;28;20172;-70
2021/10/02 11:40:41;;;;;;;3.67;3.22;;;23.80;64.00;;;;;;5058270;28;20044;-69
2021/10/02 11:43:12;;;;;;;3.90;3.10;;;24.10;63.30;;;;;;5061310;28;20025;-69
2021/10/02 11:45:45;;;;;;;6.15;3.13;;;24.40;62.50;;;;;;5058944;28;20025;-69
2021/10/02 11:48:20;;;;;;;3.67;2.85;;;24.60;61.80;;;;;;5063638;28;20450;-69
2021/10/02 11:50:48;;;;;;;4.95;2.90;;;24.90;60.70;;;;;;5059309;28;20067;-69
2021/10/02 11:53:16;;;;;;;5.95;3.05;;;25.20;60.10;;;;;;5063821;28;20045;-69
2021/10/02 11:55:41;;;;;;;4.20;2.92;;;25.30;59.80;;;;;;5061828;28;20020;-70
2021/10/02 11:58:07;;;;;;;4.65;3.00;;;25.50;59.30;;;;;;5028242;28;20523;-69
2021/10/02 12:00:39;;;;;;;5.95;2.90;;;25.60;58.10;;;;;;5060147;28;20020;-74
2021/10/02 12:03:06;;;;;;;3.72;2.90;;;25.60;58.70;;;;;;5055766;28;20032;-72
2021/10/02 12:05:33;;;;;;;3.42;2.47;;;25.80;58.20;;;;;;5039130;28;20121;-71
2021/10/02 12:07:59;;;;;;;4.03;3.10;;;26.00;57.30;;;;;;5034340;28;20029;-68
2021/10/02 12:10:26;;;;;;;6.28;3.22;;;26.10;57.10;;;;;;5041769;28;20162;-68
2021/10/02 12:12:52;;;;;;;4.20;3.00;;;26.10;56.70;;;;;;5053014;28;20572;-68
2021/10/02 12:15:31;;;;;;;3.28;2.75;;;26.10;55.40;;;;;;5053653;28;20496;-68
2021/10/02 12:17:57;;;;;;;9.52;2.83;;;26.30;54.70;;;;;;5053501;28;20029;-68
2021/10/02 12:20:43;;;;;;;4.22;2.70;;;26.40;53.90;;;;;;5021067;28;20032;-68
2021/10/02 12:23:11;;;;;;;5.20;2.72;;;26.50;53.80;;;;;;5033959;28;20133;-68
2021/10/02 12:25:37;;;;;;;2.97;2.67;;;26.40;54.30;;;;;;5033130;28;20057;-68
2021/10/02 12:28:04;;;;;;;4.95;2.88;;;26.40;54.40;;;;;;5037200;28;20475;-69
2021/10/02 12:30:30;;;;;;;4.57;2.50;;;26.50;54.50;;;;;;5044303;28;20053;-68
2021/10/02 12:33:05;;;;;;;5.50;3.03;;;26.60;54.60;;;;;;5034112;28;20033;-68
2021/10/02 12:35:31;;;;;;;5.43;2.95;;;26.60;54.30;;;;;;5044457;28;20030;-68
2021/10/02 12:37:56;;;;;;;4.80;2.63;;;26.50;53.90;;;;;;5033894;28;20356;-68
2021/10/02 12:40:27;;;;;;;19.45;3.50;;;26.40;53.50;;;;;;5041432;28;20026;-68
2021/10/02 12:42:58;;;;;;;2.65;2.40;;;26.40;53.70;;;;;;5033200;28;20025;-68
2021/10/02 12:45:31;;;;;;;4.22;2.75;;;26.30;54.10;;;;;;5033472;28;20112;-68
2021/10/02 12:48:03;;;;;;;4.18;2.78;;;26.20;54.50;;;;;;5034951;28;20113;-68
2021/10/02 12:50:33;;;;;;;3.13;2.47;;;25.90;54.80;;;;;;5045454;28;20029;-69
2021/10/02 12:52:59;;;;;;;3.17;2.67;;;25.50;55.60;;;;;;5049086;28;20059;-68
2021/10/02 12:55:25;;;;;;;3.72;2.90;;;25.30;56.40;;;;;;5050890;28;20041;-68
2021/10/02 12:57:51;;;;;;;5.40;2.60;;;25.40;56.50;;;;;;5052402;28;20473;-68
2021/10/02 13:00:29;;;;;;;4.50;2.58;;;25.50;56.10;;;;;;5046363;28;20072;-68
2021/10/02 13:03:00;;;;;;;2.88;2.45;;;25.90;56.10;;;;;;5032881;28;20359;-68
2021/10/02 13:05:28;;;;;;;4.78;2.55;;;26.30;55.40;;;;;;5046606;28;20025;-68
2021/10/02 13:07:57;;;;;;;3.60;2.75;;;26.60;54.10;;;;;;5052283;28;20607;-68
2021/10/02 13:10:35;;;;;;;4.68;2.47;;;26.80;54.00;;;;;;5039220;28;20078;-68
2021/10/02 13:13:02;;;;;;;3.20;2.58;;;26.80;53.60;;;;;;5032979;28;20029;-68
2021/10/02 13:15:42;;;;;;;2.88;2.60;;;26.70;53.00;;;;;;5027272;28;20060;-68
2021/10/02 13:18:14;;;;;;;2.70;2.47;;;26.50;52.80;;;;;;5052133;28;20059;-68
2021/10/02 13:20:39;;;;;;;2.90;2.60;;;26.50;52.90;;;;;;5047859;28;20187;-68
2021/10/02 13:23:20;;;;;;;2.70;2.38;;;26.80;52.70;;;;;;5034822;28;20037;-68
2021/10/02 13:25:57;;;;;;;2.92;2.55;;;27.20;51.70;;;;;;5051406;28;20033;-68
2021/10/02 13:28:29;;;;;;;3.13;2.33;;;;;;;;;;5048672;28;20064;-68
2021/10/02 13:30:56;;;;;;;3.20;2.35;;;;;;;;;;5041813;28;20021;-68
2021/10/02 13:33:23;;;;;;;4.32;2.50;;;;;;;;;;5052221;28;20093;-68
2021/10/02 13:35:50;;;;;;;3.60;3.15;;;;;;;;;;5050328;28;20033;-68
2021/10/02 13:38:17;;;;;;;4.88;2.70;;;;;;;;;;5041197;28;20407;-68
2021/10/02 13:40:53;;;;;;;2.80;2.40;;;;;;;;;;5037014;28;20082;-68
2021/10/02 13:43:20;;;;;;;2.45;2.25;;;;;;;;;;5032972;28;20424;-68
2021/10/02 13:45:50;;;;;;;4.30;2.83;;;;;;;;;;5031805;28;20061;-68
2021/10/02 13:48:17;;;;;;;2.83;2.50;;;;;;;;;;5032515;28;20127;-68